createdAt,value
2023-05-14T00:00:26.377Z,101225.2
2023-05-14T00:01:26.779Z,101223.2
2023-05-14T00:02:27.454Z,101222.3
2023-05-14T00:03:27.509Z,101222.7
2023-05-14T00:04:27.882Z,101221.48
2023-05-14T00:05:28.202Z,101218.47
2023-05-14T00:06:28.563Z,101221.75
2023-05-14T00:07:28.868Z,101221.7
2023-05-14T00:08:29.391Z,101217.12
2023-05-14T00:09:30.116Z,101219.26
2023-05-14T00:10:30.023Z,101217.16
2023-05-14T00:11:30.551Z,101219.84
2023-05-14T00:12:30.701Z,101218.31
2023-05-14T00:13:30.951Z,101219.3
2023-05-14T00:14:31.673Z,101219.11
2023-05-14T00:15:34.210Z,101219.11
2023-05-14T00:16:32.146Z,101221.12
2023-05-14T00:17:32.383Z,101222.47
2023-05-14T00:18:33.319Z,101222.41
2023-05-14T00:19:33.210Z,101221.41
2023-05-14T00:20:33.425Z,101219.59
2023-05-14T00:21:33.988Z,101220.14
2023-05-14T00:22:35.026Z,101221.88
2023-05-14T00:23:34.806Z,101218.23
2023-05-14T00:24:35.744Z,101218.67
2023-05-14T00:25:35.607Z,101219.14
2023-05-14T00:26:35.851Z,101220.48
2023-05-14T00:27:36.586Z,101215.27
2023-05-14T00:28:36.501Z,101216.28
2023-05-14T00:29:37.002Z,101214.51
2023-05-14T00:30:37.110Z,101215.39
2023-05-14T00:31:37.745Z,101216
2023-05-14T00:32:37.936Z,101217.44
2023-05-14T00:33:38.267Z,101217.16
2023-05-14T00:34:38.530Z,101216.91
2023-05-14T00:35:39.094Z,101218.05
2023-05-14T00:36:39.331Z,101216.79
2023-05-14T00:37:39.623Z,101217.87
2023-05-14T00:38:40.040Z,101215.15
2023-05-14T00:39:40.342Z,101219.39
2023-05-14T00:40:41.278Z,101216.81
2023-05-14T00:41:41.174Z,101214.12
2023-05-14T00:42:41.386Z,101214.26
2023-05-14T00:43:41.917Z,101215.86
2023-05-14T00:44:42.175Z,101213.2
2023-05-14T00:45:42.852Z,101214.78
2023-05-14T00:46:42.982Z,101215.41
2023-05-14T00:47:44.105Z,101213.29
2023-05-14T00:48:45.168Z,101215.11
2023-05-14T00:49:44.317Z,101217.03
2023-05-14T00:50:44.633Z,101213.23
2023-05-14T00:51:45.051Z,101212.95
2023-05-14T00:52:45.142Z,101214.28
2023-05-14T00:53:46.581Z,101212.77
2023-05-14T00:54:47.978Z,101207.23
2023-05-14T00:55:47.203Z,101210.29
2023-05-14T00:56:47.363Z,101206.8
2023-05-14T00:57:47.126Z,101207.38
2023-05-14T00:58:47.230Z,101207.2
2023-05-14T00:59:47.767Z,101202.38
2023-05-14T01:00:47.874Z,101207.74
2023-05-14T01:01:48.060Z,101207.03
2023-05-14T01:02:48.802Z,101207.17
2023-05-14T01:03:49.359Z,101212.73
2023-05-14T01:04:50.051Z,101210.92
2023-05-14T01:10:15.871Z,101210.48
2023-05-14T01:15:31.690Z,101212
2023-05-14T01:16:20.710Z,101209.82
2023-05-14T01:17:22.058Z,101211.68
2023-05-14T01:18:20.731Z,101210.94
2023-05-14T01:20:22.723Z,101211.3
2023-05-14T01:22:26.806Z,101215.16
2023-05-14T01:23:27.168Z,101213.69
2023-05-14T01:24:27.552Z,101213.12
2023-05-14T01:25:29.179Z,101213.9
2023-05-14T01:26:28.211Z,101219.95
2023-05-14T01:28:33.920Z,101221.2
2023-05-14T01:29:34.216Z,101217.16
2023-05-14T01:31:36.835Z,101212.86
2023-05-14T01:32:34.526Z,101209.74
2023-05-14T01:33:36.712Z,101207.68
2023-05-14T01:34:37.647Z,101206.92
2023-05-14T01:35:35.617Z,101206.41
2023-05-14T01:36:36.309Z,101204.58
2023-05-14T01:37:38.477Z,101199.12
2023-05-14T01:38:37.569Z,101201.58
2023-05-14T01:39:38.116Z,101198.16
2023-05-14T01:40:37.599Z,101196.78
2023-05-14T01:41:38.492Z,101202.62
2023-05-14T01:42:38.860Z,101203.38
2023-05-14T01:43:39.352Z,101204.25
2023-05-14T01:44:38.623Z,101200.95
2023-05-14T01:45:38.905Z,101200.95
2023-05-14T01:46:39.534Z,101203.19
2023-05-14T01:47:39.534Z,101201.93
2023-05-14T01:48:39.976Z,101205.81
2023-05-14T01:49:40.598Z,101197.75
2023-05-14T01:50:40.925Z,101200.59
2023-05-14T01:51:40.956Z,101207.14
2023-05-14T01:52:41.442Z,101204.73
2023-05-14T01:53:41.761Z,101208.27
2023-05-14T01:54:41.962Z,101209.06
2023-05-14T01:55:42.378Z,101209.59
2023-05-14T01:56:42.813Z,101201.96
2023-05-14T01:57:43.211Z,101208.95
2023-05-14T01:58:43.527Z,101206.47
2023-05-14T01:59:43.736Z,101208.39
2023-05-14T02:00:44.149Z,101206.08
2023-05-14T02:01:44.602Z,101209.66
2023-05-14T02:02:44.888Z,101211.39
2023-05-14T02:03:45.389Z,101210.84
2023-05-14T02:04:45.610Z,101209.21
2023-05-14T02:05:45.831Z,101210.82
2023-05-14T02:06:46.232Z,101213.88
2023-05-14T02:07:46.656Z,101210.92
2023-05-14T02:08:47.103Z,101213.01
2023-05-14T02:09:47.277Z,101214.86
2023-05-14T02:10:47.713Z,101216.25
2023-05-14T02:11:47.927Z,101215.64
2023-05-14T02:12:48.418Z,101213.32
2023-05-14T02:13:48.907Z,101215.38
2023-05-14T02:14:49.040Z,101213.8
2023-05-14T02:15:49.775Z,101214.78
2023-05-14T02:16:50.106Z,101216
2023-05-14T02:17:50.258Z,101212.11
2023-05-14T02:18:50.621Z,101212.44
2023-05-14T02:19:50.847Z,101212.62
2023-05-14T02:20:51.149Z,101212.19
2023-05-14T02:21:51.454Z,101212.47
2023-05-14T02:22:51.996Z,101214.72
2023-05-14T02:23:52.296Z,101208.09
2023-05-14T02:24:52.663Z,101208.97
2023-05-14T02:25:52.933Z,101208.88
2023-05-14T02:26:53.352Z,101208.31
2023-05-14T02:27:53.599Z,101210.45
2023-05-14T02:28:53.967Z,101208.73
2023-05-14T02:29:54.291Z,101208.78
2023-05-14T02:30:59.431Z,101207.35
2023-05-14T02:31:57.465Z,101204.48
2023-05-14T02:32:57.444Z,101206.97
2023-05-14T02:33:57.532Z,101208.79
2023-05-14T02:34:57.896Z,101207.77
2023-05-14T02:35:58.235Z,101206.41
2023-05-14T02:36:58.633Z,101204.49
2023-05-14T02:37:58.836Z,101205.28
2023-05-14T02:39:00.595Z,101204.8
2023-05-14T02:39:59.776Z,101203.58
2023-05-14T02:40:59.883Z,101207.75
2023-05-14T02:42:00.408Z,101208.44
2023-05-14T02:43:00.616Z,101205.59
2023-05-14T02:44:01.034Z,101206.41
2023-05-14T02:45:01.456Z,101209.03
2023-05-14T02:46:01.758Z,101208.02
2023-05-14T02:47:02.448Z,101209.14
2023-05-14T02:48:02.458Z,101210.3
2023-05-14T02:49:03.018Z,101212.53
2023-05-14T02:50:03.425Z,101211.23
2023-05-14T02:51:04.048Z,101211.61
2023-05-14T02:52:04.363Z,101216.91
2023-05-14T02:53:04.272Z,101216.09
2023-05-14T02:54:05.096Z,101218.31
2023-05-14T02:55:05.614Z,101216.22
2023-05-14T02:56:05.720Z,101212.08
2023-05-14T02:57:05.715Z,101211.81
2023-05-14T02:58:05.942Z,101208.36
2023-05-14T02:59:06.455Z,101212.59
2023-05-14T03:00:08.011Z,101210.79
2023-05-14T03:01:07.566Z,101213.63
2023-05-14T03:02:07.382Z,101211.26
2023-05-14T03:03:07.735Z,101215
2023-05-14T03:04:08.020Z,101217.71
2023-05-14T03:05:09.079Z,101217.58
2023-05-14T03:06:08.645Z,101218
2023-05-14T03:07:09.166Z,101218.42
2023-05-14T03:08:09.494Z,101216.76
2023-05-14T03:09:10.098Z,101216.47
2023-05-14T03:10:10.825Z,101220.88
2023-05-14T03:11:10.544Z,101215.75
2023-05-14T03:12:11.148Z,101218.72
2023-05-14T03:13:11.263Z,101208.92
2023-05-14T03:14:11.899Z,101213.35
2023-05-14T03:15:12.116Z,101211.61
2023-05-14T03:16:12.244Z,101215.12
2023-05-14T03:17:12.867Z,101215.09
2023-05-14T03:18:13.584Z,101213.72
2023-05-14T03:19:13.568Z,101213.34
2023-05-14T03:20:13.722Z,101216.66
2023-05-14T03:21:14.065Z,101214.84
2023-05-14T03:22:14.758Z,101212.81
2023-05-14T03:23:15.439Z,101216.98
2023-05-14T03:24:15.214Z,101213.89
2023-05-14T03:25:15.540Z,101215.19
2023-05-14T03:26:16.070Z,101211.45
2023-05-14T03:27:16.390Z,101213.5
2023-05-14T03:28:16.489Z,101211.81
2023-05-14T03:29:17.005Z,101211.17
2023-05-14T03:30:17.631Z,101207.09
2023-05-14T03:31:17.766Z,101205.26
2023-05-14T03:32:18.164Z,101204.77
2023-05-14T03:33:18.348Z,101202.95
2023-05-14T03:34:18.770Z,101205.02
2023-05-14T03:35:19.404Z,101202.11
2023-05-14T03:36:19.405Z,101202.77
2023-05-14T03:37:20.118Z,101203.27
2023-05-14T03:38:20.192Z,101203.27
2023-05-14T03:39:20.749Z,101200.12
2023-05-14T03:40:21.014Z,101202.94
2023-05-14T03:41:21.389Z,101204.56
2023-05-14T03:42:21.706Z,101199.67
2023-05-14T03:43:22.106Z,101202.06
2023-05-14T03:44:22.420Z,101203.21
2023-05-14T03:45:22.843Z,101201.59
2023-05-14T03:46:23.250Z,101202.95
2023-05-14T03:47:23.512Z,101203.71
2023-05-14T03:48:23.957Z,101200.58
2023-05-14T03:49:25.630Z,101199.86
2023-05-14T03:50:24.719Z,101203.69
2023-05-14T03:51:24.927Z,101203.67
2023-05-14T03:52:25.391Z,101203.09
2023-05-14T03:53:25.666Z,101204.69
2023-05-14T03:54:26.714Z,101203.55
2023-05-14T03:55:26.483Z,101199.35
2023-05-14T03:56:26.994Z,101203.34
2023-05-14T03:57:27.228Z,101204.45
2023-05-14T03:58:27.679Z,101203.16
2023-05-14T03:59:28.397Z,101207.06
2023-05-14T04:00:28.688Z,101208.23
2023-05-14T04:01:28.697Z,101207.17
2023-05-14T04:02:29.155Z,101205
2023-05-14T04:03:29.561Z,101205.69
2023-05-14T04:04:30.069Z,101203.85
2023-05-14T04:05:30.160Z,101202.78
2023-05-14T04:06:30.572Z,101204.66
2023-05-14T04:07:30.909Z,101207.58
2023-05-14T04:08:31.299Z,101201.26
2023-05-14T04:09:32.105Z,101204.97
2023-05-14T04:10:32.116Z,101202.73
2023-05-14T04:11:32.530Z,101202.78
2023-05-14T04:12:32.950Z,101203.02
2023-05-14T04:13:33.364Z,101199.84
2023-05-14T04:14:33.774Z,101202.13
2023-05-14T04:15:33.982Z,101200.3
2023-05-14T04:16:34.612Z,101203.41
2023-05-14T04:17:35.353Z,101203.64
2023-05-14T04:18:35.234Z,101200.7
2023-05-14T04:19:35.752Z,101202.28
2023-05-14T04:20:35.993Z,101202.78
2023-05-14T04:21:36.286Z,101203.56
2023-05-14T04:22:36.794Z,101203.51
2023-05-14T04:23:37.215Z,101200.29
2023-05-14T04:24:37.535Z,101203.25
2023-05-14T04:25:38.060Z,101204.5
2023-05-14T04:26:38.369Z,101201.61
2023-05-14T04:27:38.524Z,101202.23
2023-05-14T04:28:39.019Z,101204.59
2023-05-14T04:29:39.356Z,101201.88
2023-05-14T04:30:39.709Z,101204.22
2023-05-14T04:31:40.371Z,101207.51
2023-05-14T04:32:40.694Z,101206.53
2023-05-14T04:33:41.013Z,101205.05
2023-05-14T04:34:41.455Z,101206.02
2023-05-14T04:35:42.011Z,101201.24
2023-05-14T04:36:42.334Z,101203.22
2023-05-14T04:37:42.530Z,101208.03
2023-05-14T04:38:43.046Z,101204.92
2023-05-14T04:39:43.591Z,101201
2023-05-14T04:40:43.812Z,101206.53
2023-05-14T04:41:44.292Z,101202.25
2023-05-14T04:42:44.560Z,101204.66
2023-05-14T04:43:44.865Z,101204.89
2023-05-14T04:44:45.373Z,101205.5
2023-05-14T04:45:45.873Z,101206.08
2023-05-14T04:46:46.580Z,101206.56
2023-05-14T04:47:46.979Z,101204.81
2023-05-14T04:48:47.114Z,101207.11
2023-05-14T04:49:47.431Z,101205.27
2023-05-14T04:50:47.738Z,101205.95
2023-05-14T04:51:48.265Z,101206.17
2023-05-14T04:52:48.788Z,101203.16
2023-05-14T04:53:49.090Z,101203.45
2023-05-14T04:54:49.496Z,101204.75
2023-05-14T04:55:49.813Z,101204.16
2023-05-14T04:56:50.768Z,101204.22
2023-05-14T04:57:50.650Z,101208.61
2023-05-14T04:58:51.057Z,101206.56
2023-05-14T04:59:51.517Z,101208.3
2023-05-14T05:00:51.907Z,101212.96
2023-05-14T05:01:52.219Z,101211.14
2023-05-14T05:02:52.752Z,101210.78
2023-05-14T05:03:53.245Z,101213.86
2023-05-14T05:04:53.678Z,101211.4
2023-05-14T05:05:54.076Z,101208.66
2023-05-14T05:06:54.256Z,101206.52
2023-05-14T05:07:55.240Z,101210.19
2023-05-14T05:08:56.168Z,101207.05
2023-05-14T05:09:55.754Z,101206.9
2023-05-14T05:10:55.974Z,101205.59
2023-05-14T05:11:56.272Z,101205.7
2023-05-14T05:12:56.896Z,101207.33
2023-05-14T05:13:57.205Z,101208.2
2023-05-14T05:14:58.665Z,101206.28
2023-05-14T05:15:58.336Z,101211.18
2023-05-14T05:16:58.378Z,101208.77
2023-05-14T05:17:59.389Z,101207.39
2023-05-14T05:18:59.233Z,101207.97
2023-05-14T05:19:59.763Z,101207.26
2023-05-14T05:21:00.029Z,101212.72
2023-05-14T05:22:00.659Z,101209.88
2023-05-14T05:23:01.071Z,101205.49
2023-05-14T05:24:01.373Z,101204.31
2023-05-14T05:25:02.201Z,101206.27
2023-05-14T05:26:02.529Z,101205.77
2023-05-14T05:27:02.529Z,101206.72
2023-05-14T05:28:03.160Z,101211.2
2023-05-14T05:29:06.524Z,101210.95
2023-05-14T05:30:04.895Z,101211.05
2023-05-14T05:31:04.955Z,101207.5
2023-05-14T05:32:05.724Z,101211.93
2023-05-14T05:33:05.235Z,101207.45
2023-05-14T05:34:05.634Z,101207.77
2023-05-14T05:35:07.079Z,101208
2023-05-14T05:36:07.197Z,101206.11
2023-05-14T05:37:07.086Z,101207.37
2023-05-14T05:38:07.637Z,101206.09
2023-05-14T05:39:07.913Z,101201.5
2023-05-14T05:40:09.361Z,101199.81
2023-05-14T05:41:08.968Z,101198.55
2023-05-14T05:42:09.229Z,101195.82
2023-05-14T05:43:09.602Z,101196.86
2023-05-14T05:44:10.114Z,101194.97
2023-05-14T05:45:11.158Z,101193.77
2023-05-14T05:46:11.863Z,101195.81
2023-05-14T05:47:11.254Z,101194.8
2023-05-14T05:48:11.872Z,101199.47
2023-05-14T05:49:12.181Z,101197.84
2023-05-14T05:50:12.912Z,101199.38
2023-05-14T05:51:13.127Z,101197.84
2023-05-14T05:52:13.662Z,101201.55
2023-05-14T05:53:14.040Z,101201.46
2023-05-14T05:54:14.373Z,101200.83
2023-05-14T05:55:15.003Z,101204.28
2023-05-14T05:56:15.304Z,101200.59
2023-05-14T05:57:15.465Z,101198.98
2023-05-14T05:58:16.131Z,101201.83
2023-05-14T05:59:16.657Z,101200.84
2023-05-14T06:00:17.695Z,101199.37
2023-05-14T06:01:17.587Z,101203.56
2023-05-14T06:02:18.871Z,101196.97
2023-05-14T06:03:18.370Z,101200.11
2023-05-14T06:04:18.738Z,101200.39
2023-05-14T06:05:19.427Z,101199.81
2023-05-14T06:06:19.671Z,101198.11
2023-05-14T06:07:20.081Z,101200.26
2023-05-14T06:08:20.509Z,101194.45
2023-05-14T06:09:20.933Z,101197.8
2023-05-14T06:10:21.527Z,101197.03
2023-05-14T06:11:21.762Z,101193.39
2023-05-14T06:12:22.173Z,101192.29
2023-05-14T06:13:22.750Z,101193.47
2023-05-14T06:14:23.198Z,101191.25
2023-05-14T06:15:23.820Z,101194.04
2023-05-14T06:16:24.106Z,101193.3
2023-05-14T06:17:25.259Z,101195.24
2023-05-14T06:18:25.432Z,101194.37
2023-05-14T06:19:25.498Z,101192.25
2023-05-14T06:20:26.275Z,101194.21
2023-05-14T06:21:26.215Z,101197.48
2023-05-14T06:22:26.744Z,101196.11
2023-05-14T06:23:27.204Z,101194.14
2023-05-14T06:24:27.510Z,101194.77
2023-05-14T06:25:28.395Z,101191.73
2023-05-14T06:26:28.522Z,101192.05
2023-05-14T06:27:28.847Z,101194.13
2023-05-14T06:28:29.461Z,101191.28
2023-05-14T06:29:29.984Z,101186.14
2023-05-14T06:30:30.391Z,101187.77
2023-05-14T06:31:31.050Z,101188.13
2023-05-14T06:32:31.405Z,101187.05
2023-05-14T06:33:31.616Z,101187.88
2023-05-14T06:34:32.450Z,101187.84
2023-05-14T06:35:33.066Z,101186.78
2023-05-14T06:36:32.967Z,101188.8
2023-05-14T06:37:33.514Z,101186.47
2023-05-14T06:38:34.022Z,101187.38
2023-05-14T06:39:34.325Z,101186.55
2023-05-14T06:40:34.843Z,101189.06
2023-05-14T06:41:35.262Z,101188.34
2023-05-14T06:42:35.620Z,101182.8
2023-05-14T06:43:36.191Z,101184.02
2023-05-14T06:44:36.824Z,101187.41
2023-05-14T06:45:37.129Z,101188.59
2023-05-14T06:46:37.548Z,101180.36
2023-05-14T06:47:38.069Z,101181.22
2023-05-14T06:48:38.599Z,101183.09
2023-05-14T06:49:39.314Z,101182.92
2023-05-14T06:50:40.045Z,101180.44
2023-05-14T06:51:39.973Z,101183.29
2023-05-14T06:52:40.252Z,101182.88
2023-05-14T06:53:41.424Z,101182.61
2023-05-14T06:54:41.127Z,101183.47
2023-05-14T06:55:41.798Z,101180.72
2023-05-14T06:56:42.322Z,101180.48
2023-05-14T06:57:42.558Z,101179.2
2023-05-14T06:58:43.056Z,101185.09
2023-05-14T06:59:43.681Z,101179.11
2023-05-14T07:00:44.000Z,101177.15
2023-05-14T07:01:44.416Z,101178.91
2023-05-14T07:02:44.967Z,101176.53
2023-05-14T07:03:45.238Z,101178.02
2023-05-14T07:04:45.943Z,101175.53
2023-05-14T07:05:46.389Z,101175.19
2023-05-14T07:06:46.693Z,101174.83
2023-05-14T07:07:47.105Z,101179.94
2023-05-14T07:08:47.631Z,101177.84
2023-05-14T07:09:48.080Z,101182.06
2023-05-14T07:10:48.670Z,101177.91
2023-05-14T07:11:49.176Z,101178.67
2023-05-14T07:12:49.829Z,101175.51
2023-05-14T07:13:50.017Z,101172.84
2023-05-14T07:14:50.446Z,101176.5
2023-05-14T07:15:51.567Z,101171.73
2023-05-14T07:16:51.431Z,101175.82
2023-05-14T07:17:51.914Z,101170.95
2023-05-14T07:18:52.729Z,101173.41
2023-05-14T07:19:52.835Z,101171.45
2023-05-14T07:20:53.327Z,101168.9
2023-05-14T07:21:53.754Z,101170.22
2023-05-14T07:22:54.081Z,101170.32
2023-05-14T07:23:54.427Z,101168.86
2023-05-14T07:24:55.016Z,101164
2023-05-14T07:25:55.627Z,101168.2
2023-05-14T07:26:56.060Z,101170.4
2023-05-14T07:27:56.450Z,101170.12
2023-05-14T07:28:56.974Z,101168.05
2023-05-14T07:29:57.410Z,101168.78
2023-05-14T07:30:57.717Z,101166.28
2023-05-14T07:31:58.018Z,101166.62
2023-05-14T07:32:58.473Z,101164.96
2023-05-14T07:33:58.958Z,101167.42
2023-05-14T07:34:59.474Z,101161.71
2023-05-14T07:35:59.730Z,101164.1
2023-05-14T07:36:59.994Z,101162.17
2023-05-14T07:38:00.831Z,101166.16
2023-05-14T07:39:01.156Z,101162.34
2023-05-14T07:40:01.265Z,101165.25
2023-05-14T07:41:01.616Z,101165.16
2023-05-14T07:42:01.919Z,101163.24
2023-05-14T07:43:02.382Z,101165.76
2023-05-14T07:44:02.718Z,101162.62
2023-05-14T07:45:03.523Z,101163.03
2023-05-14T07:46:03.533Z,101166.05
2023-05-14T07:47:04.477Z,101161.83
2023-05-14T07:48:04.681Z,101161.69
2023-05-14T07:49:04.695Z,101161.44
2023-05-14T07:50:05.723Z,101158.88
2023-05-14T07:51:05.512Z,101154.92
2023-05-14T07:52:06.061Z,101156.2
2023-05-14T07:53:06.049Z,101153.29
2023-05-14T07:54:06.773Z,101150.8
2023-05-14T07:55:07.794Z,101151.3
2023-05-14T07:56:08.428Z,101150.01
2023-05-14T07:57:07.512Z,101147.23
2023-05-14T07:58:08.120Z,101146.32
2023-05-14T07:59:08.338Z,101146.27
2023-05-14T08:00:09.339Z,101143.73
2023-05-14T08:01:09.284Z,101140.41
2023-05-14T08:02:09.425Z,101138.67
2023-05-14T08:03:09.830Z,101141.52
2023-05-14T08:04:10.487Z,101140.39
2023-05-14T08:05:10.526Z,101137.25
2023-05-14T08:06:10.997Z,101139.17
2023-05-14T08:07:11.466Z,101141.09
2023-05-14T08:08:11.771Z,101138.59
2023-05-14T08:09:12.100Z,101138.94
2023-05-14T08:10:12.752Z,101141.42
2023-05-14T08:11:12.878Z,101141.7
2023-05-14T08:12:13.356Z,101140.73
2023-05-14T08:13:13.756Z,101137.98
2023-05-14T08:14:14.007Z,101134.73
2023-05-14T08:15:14.481Z,101136.84
2023-05-14T08:16:15.601Z,101133.02
2023-05-14T08:17:15.230Z,101135.98
2023-05-14T08:18:15.481Z,101135.08
2023-05-14T08:19:16.973Z,101128.16
2023-05-14T08:20:16.479Z,101131.55
2023-05-14T08:21:16.779Z,101130.34
2023-05-14T08:22:17.202Z,101132.8
2023-05-14T08:23:17.612Z,101132.48
2023-05-14T08:24:19.064Z,101134.95
2023-05-14T08:25:18.552Z,101132.19
2023-05-14T08:26:18.665Z,101133.08
2023-05-14T08:27:19.285Z,101132.35
2023-05-14T08:28:19.485Z,101127.44
2023-05-14T08:29:19.708Z,101127.22
2023-05-14T08:30:20.541Z,101133.11
2023-05-14T08:31:20.521Z,101131.52
2023-05-14T08:32:23.711Z,101127.42
2023-05-14T08:33:21.883Z,101127.3
2023-05-14T08:34:22.290Z,101127.11
2023-05-14T08:35:22.623Z,101127.56
2023-05-14T08:36:23.035Z,101127.2
2023-05-14T08:37:23.193Z,101117.19
2023-05-14T08:38:23.648Z,101120.1
2023-05-14T08:39:24.059Z,101121.75
2023-05-14T08:40:24.521Z,101121.64
2023-05-14T08:41:25.717Z,101119.23
2023-05-14T08:42:26.575Z,101119.91
2023-05-14T08:44:36.609Z,101117.66
2023-05-14T08:45:31.045Z,101121.03
2023-05-14T08:46:32.719Z,101122.36
2023-05-14T08:47:31.595Z,101121.38
2023-05-14T08:48:33.317Z,101117.99
2023-05-14T08:50:31.722Z,101116.44
2023-05-14T08:51:31.716Z,101113.93
2023-05-14T08:52:32.652Z,101114.2
2023-05-14T08:53:32.467Z,101114.89
2023-05-14T08:54:32.751Z,101112.97
2023-05-14T08:55:33.737Z,101112.41
2023-05-14T08:56:33.743Z,101114.78
2023-05-14T08:57:34.723Z,101114.19
2023-05-14T08:58:34.227Z,101108.99
2023-05-14T08:59:34.537Z,101110.64
2023-05-14T09:00:35.721Z,101114.27
2023-05-14T09:01:35.584Z,101110.96
2023-05-14T09:02:37.687Z,101107.77
2023-05-14T09:03:37.105Z,101110.09
2023-05-14T09:04:37.251Z,101109.88
2023-05-14T09:05:37.636Z,101102.95
2023-05-14T09:06:38.283Z,101104.31
2023-05-14T09:07:37.873Z,101104.04
2023-05-14T09:08:38.205Z,101106.04
2023-05-14T09:09:38.799Z,101101.85
2023-05-14T09:10:38.931Z,101101.05
2023-05-14T09:11:42.867Z,101106.98
2023-05-14T09:12:40.360Z,101100.38
2023-05-14T09:13:40.771Z,101102.91
2023-05-14T09:14:41.498Z,101102.36
2023-05-14T09:15:41.510Z,101097.59
2023-05-14T09:16:47.328Z,101095.87
2023-05-14T09:17:45.862Z,101089.75
2023-05-14T09:18:45.986Z,101090.51
2023-05-14T09:19:47.347Z,101090.09
2023-05-14T09:20:47.580Z,101086.05
2023-05-14T09:21:48.106Z,101089.7
2023-05-14T09:22:47.284Z,101090.08
2023-05-14T09:23:47.396Z,101087.77
2023-05-14T09:25:48.182Z,101088.58
2023-05-14T09:26:51.418Z,101089.36
2023-05-14T09:27:50.658Z,101086.88
2023-05-14T09:28:49.202Z,101090.09
2023-05-14T09:29:49.673Z,101085.56
2023-05-14T09:30:52.970Z,101084.75
2023-05-14T09:31:51.384Z,101084.12
2023-05-14T09:32:54.506Z,101082.09
2023-05-14T09:33:52.732Z,101080.33
2023-05-14T09:34:52.284Z,101083.12
2023-05-14T09:35:56.433Z,101077.35
2023-05-14T09:36:57.310Z,101080.7
2023-05-14T09:37:55.850Z,101080.26
2023-05-14T09:38:58.607Z,101075.09
2023-05-14T09:39:56.198Z,101075.02
2023-05-14T09:40:57.234Z,101073.83
2023-05-14T09:41:57.260Z,101071.62
2023-05-14T09:42:57.623Z,101068.84
2023-05-14T09:43:58.064Z,101072.02
2023-05-14T09:44:58.395Z,101070.31
2023-05-14T09:45:58.644Z,101070.33
2023-05-14T09:46:59.294Z,101068.77
2023-05-14T09:48:00.690Z,101068.09
2023-05-14T09:48:59.865Z,101066.69
2023-05-14T09:50:00.212Z,101065.8
2023-05-14T09:51:02.713Z,101063.98
2023-05-14T09:52:01.403Z,101062.5
2023-05-14T09:53:01.926Z,101060.64
2023-05-14T09:54:03.967Z,101064.38
2023-05-14T09:55:02.672Z,101062.28
2023-05-14T09:56:02.860Z,101059
2023-05-14T09:57:03.396Z,101060.34
2023-05-14T09:58:04.199Z,101055.35
2023-05-14T09:59:04.533Z,101064.56
2023-05-14T10:00:04.954Z,101061.6
2023-05-14T10:01:06.094Z,101054.32
2023-05-14T10:02:08.943Z,101058.62
2023-05-14T10:03:07.812Z,101060.52
2023-05-14T10:04:09.586Z,101055.79
2023-05-14T10:05:07.996Z,101057.19
2023-05-14T10:06:08.257Z,101051.73
2023-05-14T10:07:08.530Z,101055.29
2023-05-14T10:09:13.975Z,101053.1
2023-05-14T10:11:18.937Z,101049.11
2023-05-14T10:12:22.012Z,101049.16
2023-05-14T10:13:23.790Z,101048.05
2023-05-14T10:14:29.423Z,101044.31
2023-05-14T10:17:32.136Z,101046.95
2023-05-14T10:19:37.370Z,101045.38
2023-05-14T10:20:37.735Z,101046.64
2023-05-14T10:21:36.849Z,101041.91
2023-05-14T10:22:35.821Z,101042.31
2023-05-14T10:23:37.253Z,101043.16
2023-05-14T10:24:37.380Z,101037.02
2023-05-14T10:25:37.410Z,101037.14
2023-05-14T10:26:39.661Z,101037.17
2023-05-14T10:27:37.814Z,101036.45
2023-05-14T10:28:38.195Z,101038.5
2023-05-14T10:29:38.674Z,101038.09
2023-05-14T10:32:44.660Z,101029.67
2023-05-14T10:34:48.487Z,101028.34
2023-05-14T10:36:52.163Z,101029.73
2023-05-14T10:37:52.599Z,101025.05
2023-05-14T10:38:56.195Z,101024.2
2023-05-14T10:39:58.955Z,101032.25
2023-05-14T10:40:57.731Z,101030.5
2023-05-14T10:41:56.933Z,101028.07
2023-05-14T10:42:59.762Z,101025
2023-05-14T10:43:59.174Z,101023.18
2023-05-14T10:45:02.590Z,101024.21
2023-05-14T10:46:01.189Z,101016.89
2023-05-14T10:47:00.487Z,101013.28
2023-05-14T10:48:01.076Z,101014.62
2023-05-14T10:49:01.317Z,101011.11
2023-05-14T10:50:05.157Z,101015.33
2023-05-14T10:51:02.805Z,101016.41
2023-05-14T10:52:03.037Z,101011.42
2023-05-14T10:53:03.350Z,101008.8
2023-05-14T10:54:03.959Z,101012.3
2023-05-14T10:55:06.633Z,101007.05
2023-05-14T10:56:09.633Z,101005.89
2023-05-14T10:57:11.392Z,101005.2
2023-05-14T10:58:11.055Z,101004.58
2023-05-14T10:59:10.441Z,101007.63
2023-05-14T11:00:11.282Z,101009.7
2023-05-14T11:01:12.201Z,101008.16
2023-05-14T11:03:13.245Z,101007.97
2023-05-14T11:05:17.421Z,101008.06
2023-05-14T11:06:17.094Z,101000.28
2023-05-14T11:07:19.511Z,101003.89
2023-05-14T11:08:19.013Z,101000.57
2023-05-14T11:09:20.895Z,101001.19
2023-05-14T11:10:22.493Z,100997.46
2023-05-14T11:11:20.590Z,100999.79
2023-05-14T11:12:21.796Z,100997.16
2023-05-14T11:13:21.753Z,100996.56
2023-05-14T11:14:22.935Z,100998.38
2023-05-14T11:15:23.482Z,100996.02
2023-05-14T11:16:23.728Z,100997.42
2023-05-14T11:17:23.273Z,100992.62
2023-05-14T11:19:26.680Z,100992.64
2023-05-14T11:20:27.057Z,100996.84
2023-05-14T11:21:28.005Z,100996.95
2023-05-14T11:22:27.853Z,100994.91
2023-05-14T11:23:28.827Z,100995.34
2023-05-14T11:24:28.536Z,100990.84
2023-05-14T11:25:28.855Z,100994.34
2023-05-14T11:26:29.497Z,100986.89
2023-05-14T11:27:30.083Z,100985.19
2023-05-14T11:28:30.507Z,100988.75
2023-05-14T11:29:30.611Z,100984.98
2023-05-14T11:30:31.753Z,100981.08
2023-05-14T11:31:31.696Z,100982.95
2023-05-14T11:32:35.369Z,100981.52
2023-05-14T11:33:32.661Z,100983.31
2023-05-14T11:34:34.136Z,100984.2
2023-05-14T11:35:33.575Z,100983.02
2023-05-14T11:36:36.833Z,100984.73
2023-05-14T11:37:34.367Z,100982.33
2023-05-14T11:38:34.885Z,100983.1
2023-05-14T11:39:36.318Z,100984.02
2023-05-14T11:40:35.701Z,100981.14
2023-05-14T11:41:35.973Z,100980.62
2023-05-14T11:42:37.463Z,100978.96
2023-05-14T11:43:36.853Z,100976.84
2023-05-14T11:44:38.454Z,100978.5
2023-05-14T11:45:37.741Z,100977.38
2023-05-14T11:46:38.028Z,100978.12
2023-05-14T11:47:38.408Z,100978.42
2023-05-14T11:48:38.906Z,100981.48
2023-05-14T11:49:39.356Z,100971.3
2023-05-14T11:50:39.666Z,100973.5
2023-05-14T11:51:40.300Z,100969.7
2023-05-14T11:52:41.137Z,100973.31
2023-05-14T11:53:41.015Z,100972.05
2023-05-14T11:54:43.178Z,100972.05
2023-05-14T11:55:41.846Z,100966.72
2023-05-14T11:56:42.154Z,100967.88
2023-05-14T11:57:43.396Z,100963.83
2023-05-14T11:59:45.444Z,100964.57
2023-05-14T12:00:46.281Z,100964.27
2023-05-14T12:01:46.201Z,100967.2